EDVK/KSF METAR and TAF weather

Enter ICAO airport designator
Station Type Date Time Source
EDVK METAR 2021/01/17 16:50 UTC NOAA

EDVK 171650Z 15004KT 5000 -SN OVC016 M01/M02 Q1019


Station Type Date Time Source
EDVK Decoded METAR 2021/01/17 16:50 UTC NOAA

Kassel / Calden, Germany (EDVK) 51-24N 009-23E 283M
Jan 17, 2021 - 11:50 AM EST / 2021.01.17 1650 UTC
Wind: from the SSE (150 degrees) at 5 MPH (4 KT):0
Visibility: 3 mile(s):0
Sky conditions: overcast
Weather: light snow
Temperature: 30 F (-1 C)
Windchill: 24 F (-4 C):1
Dew Point: 28 F (-2 C)
Relative Humidity: 92%
Pressure (altimeter): 30.09 in. Hg (1019 hPa)
ob: EDVK 171650Z 15004KT 5000 -SN OVC016 M01/M02 Q1019
cycle: 17

Station Type Date Time Source
EDVK TAF 2011/03/23 07:09 UTC NOAA

TAF COR EDVK 230655Z 2307/2321 30002KT 3500 BR SCT025 PROB30
TEMPO 2307/2309 1400 BCFG
BECMG 2307/2310 01007KT 8000

Example: see airport list